Time;durP1;ratioP1;P1;durP2;ratioP2;P2;SDS_P1;SDS_P2;PMS_P1;PMS_P2;Temp;Humidity;BMP_temperature;BMP_pressure;BME280_temperature;BME280_humidity;BME280_pressure;Samples;Min_cycle;Max_cycle;Signal;HPM_P1;HPM_P2
2022/04/30 00:00:49;;;;;;;42.28;23.15;;;;;;;5.41;56.54;99340.41;5052696;28;20078;-84
2022/04/30 00:03:14;;;;;;;39.20;22.25;;;;;;;5.40;56.27;99340.66;5050673;28;20035;-84
2022/04/30 00:05:40;;;;;;;39.85;22.13;;;;;;;5.34;56.45;99335.09;5052034;28;20029;-84
2022/04/30 00:08:05;;;;;;;45.30;22.60;;;;;;;5.32;56.42;99339.97;5053270;28;20029;-83
2022/04/30 00:10:37;;;;;;;41.33;22.92;;;;;;;5.30;56.87;99333.13;5050824;28;20052;-84
2022/04/30 00:13:03;;;;;;;39.78;22.63;;;;;;;5.28;56.42;99333.34;5051948;28;20028;-84
2022/04/30 00:15:28;;;;;;;39.25;22.13;;;;;;;5.27;56.28;99325.44;5051638;28;20397;-84
2022/04/30 00:17:55;;;;;;;40.53;22.98;;;;;;;5.27;56.58;99330.88;5051525;28;20021;-84
2022/04/30 00:20:20;;;;;;;38.53;22.63;;;;;;;5.25;56.28;99325.66;5050487;28;20043;-84
2022/04/30 00:22:46;;;;;;;42.00;21.70;;;;;;;5.23;56.30;99322.34;5051523;28;20013;-84
2022/04/30 00:25:11;;;;;;;38.75;21.42;;;;;;;5.20;56.96;99320.09;5051187;28;20021;-84
2022/04/30 00:27:37;;;;;;;39.92;21.75;;;;;;;5.19;56.23;99323.88;5051523;28;20021;-84
2022/04/30 00:30:06;;;;;;;40.47;22.17;;;;;;;5.16;56.37;99324.38;5051361;28;20096;-84
2022/04/30 00:32:31;;;;;;;39.00;20.67;;;;;;;5.13;56.94;99327.56;5050181;28;20021;-84
2022/04/30 00:34:57;;;;;;;40.22;22.48;;;;;;;5.11;57.36;99318.81;5050036;28;20278;-84
2022/04/30 00:37:22;;;;;;;37.83;20.55;;;;;;;5.07;57.25;99323.91;5051291;28;20031;-84
2022/04/30 00:39:49;;;;;;;42.95;21.58;;;;;;;5.06;57.22;99327.69;5051564;28;20060;-84
2022/04/30 00:42:15;;;;;;;37.78;21.33;;;;;;;5.02;56.76;99324.66;5051339;28;20040;-84
2022/04/30 00:44:40;;;;;;;37.15;20.58;;;;;;;5.00;56.89;99320.50;5050732;28;20444;-84
2022/04/30 00:47:06;;;;;;;41.58;21.67;;;;;;;4.98;57.18;99317.19;5051021;28;20509;-84
2022/04/30 00:49:32;;;;;;;35.88;20.55;;;;;;;4.97;57.33;99315.53;5050987;28;20017;-84
2022/04/30 00:52:02;;;;;;;37.55;21.02;;;;;;;4.94;57.49;99319.56;5050971;28;20021;-84
2022/04/30 00:54:33;;;;;;;37.28;21.73;;;;;;;4.91;57.30;99323.56;5050257;28;20029;-84
2022/04/30 00:57:01;;;;;;;34.70;19.55;;;;;;;4.90;57.65;99318.38;5050929;28;20113;-84
2022/04/30 00:59:29;;;;;;;39.03;21.02;;;;;;;4.88;57.79;99310.47;5050899;28;20024;-82
2022/04/30 01:01:59;;;;;;;35.90;19.63;;;;;;;4.92;57.11;99314.34;5049577;28;20083;-77
2022/04/30 01:04:25;;;;;;;39.22;20.65;;;;;;;4.92;57.61;99310.81;5050258;28;20029;-77
2022/04/30 01:07:06;;;;;;;37.28;21.27;;;;;;;4.92;57.79;99321.69;5050708;28;20496;-77
2022/04/30 01:09:33;;;;;;;42.97;22.02;;;;;;;4.92;57.57;99319.78;5047610;28;20021;-77
2022/04/30 01:12:10;;;;;;;42.30;22.40;;;;;;;4.92;57.40;99319.78;5050267;28;20108;-77
2022/04/30 01:14:37;;;;;;;48.25;24.00;;;;;;;4.91;58.13;99317.31;5050758;28;20112;-76
2022/04/30 01:17:05;;;;;;;47.78;24.73;;;;;;;4.89;57.45;99314.81;5050448;28;20481;-77
2022/04/30 01:19:33;;;;;;;45.17;23.88;;;;;;;4.88;57.75;99315.06;5048123;28;20028;-77
2022/04/30 01:22:01;;;;;;;44.90;23.08;;;;;;;4.85;57.36;99312.81;5050462;28;20020;-77
2022/04/30 01:24:28;;;;;;;46.60;23.67;;;;;;;4.81;58.28;99314.38;5050158;28;20025;-77
2022/04/30 01:26:55;;;;;;;42.90;23.65;;;;;;;4.78;58.00;99315.69;5050349;28;20021;-77
2022/04/30 01:29:24;;;;;;;44.88;22.17;;;;;;;4.74;58.07;99312.59;5050356;28;20032;-77
2022/04/30 01:37:25;;;;;;;38.35;20.08;;;;;;;4.64;57.59;99306.09;5049134;28;20036;-77
2022/04/30 01:40:11;;;;;;;34.63;20.23;;;;;;;4.60;58.40;99308.47;5050086;28;20017;-77
2022/04/30 01:42:41;;;;;;;37.15;19.50;;;;;;;4.57;58.57;99306.22;5047847;28;20079;-77
2022/04/30 01:45:07;;;;;;;34.83;18.25;;;;;;;4.53;58.31;99294.97;5049851;28;21466;-77
2022/04/30 01:47:37;;;;;;;34.08;19.33;;;;;;;4.51;58.11;99299.81;5048577;28;20025;-77
2022/04/30 01:50:04;;;;;;;31.95;18.40;;;;;;;4.50;58.60;99297.34;5049718;28;20017;-77
2022/04/30 01:52:30;;;;;;;35.10;18.67;;;;;;;4.50;58.31;99302.78;5049326;28;20021;-77
2022/04/30 01:54:56;;;;;;;33.42;19.08;;;;;;;4.48;58.09;99294.88;5049913;28;20025;-77
2022/04/30 01:57:28;;;;;;;35.80;18.65;;;;;;;4.50;58.47;99297.34;5049843;28;20025;-77
2022/04/30 01:59:58;;;;;;;36.15;18.95;;;;;;;4.50;58.15;99294.63;5048175;28;20021;-77
2022/04/30 02:02:26;;;;;;;35.40;19.70;;;;;;;4.51;58.08;99293.56;5049761;28;20107;-77
2022/04/30 02:04:54;;;;;;;35.50;20.35;;;;;;;4.50;58.13;99295.44;5049748;28;20385;-77
2022/04/30 02:07:21;;;;;;;38.13;19.08;;;;;;;4.51;58.55;99293.56;5049022;28;20551;-76
2022/04/30 02:09:51;;;;;;;34.40;19.35;;;;;;;4.45;58.63;99281.78;5049965;28;20040;-77
2022/04/30 02:12:17;;;;;;;31.77;18.70;;;;;;;4.41;58.80;99286.84;5049319;28;20033;-76
2022/04/30 02:14:54;;;;;;;34.33;19.00;;;;;;;4.39;58.57;99280.00;5049625;28;20116;-77
2022/04/30 02:17:21;;;;;;;36.33;19.27;;;;;;;4.37;58.93;99280.22;5049681;28;20025;-77
2022/04/30 02:22:38;;;;;;;32.38;18.60;;;;;;;4.34;58.63;99279.88;5049892;28;20488;-77
2022/04/30 02:25:05;;;;;;;33.03;19.00;;;;;;;4.31;58.77;99281.16;5049418;28;20483;-77
2022/04/30 02:27:31;;;;;;;33.20;17.90;;;;;;;4.26;58.92;99283.78;5049721;28;20044;-78
2022/04/30 02:29:58;;;;;;;31.77;18.30;;;;;;;4.23;58.94;99276.91;5049591;28;20037;-77
2022/04/30 02:32:23;;;;;;;39.22;22.15;;;;;;;4.22;58.96;99272.53;5049589;28;20037;-77
2022/04/30 02:34:49;;;;;;;32.63;19.45;;;;;;;4.22;59.54;99267.09;5049707;28;20094;-77
2022/04/30 02:37:14;;;;;;;38.50;20.95;;;;;;;4.22;59.48;99269.81;5048599;28;20025;-77
2022/04/30 02:39:43;;;;;;;38.20;20.25;;;;;;;4.22;58.83;99267.09;5049219;28;21400;-77
2022/04/30 02:42:11;;;;;;;37.20;19.92;;;;;;;4.22;58.85;99267.09;5049818;28;20154;-77
2022/04/30 02:44:37;;;;;;;37.83;19.83;;;;;;;4.21;59.53;99265.44;5049787;28;20123;-77
2022/04/30 02:47:03;;;;;;;38.67;19.95;;;;;;;4.20;59.74;99268.41;5050077;28;20100;-77
2022/04/30 02:49:28;;;;;;;37.88;20.20;;;;;;;4.21;58.86;99265.44;5049990;28;20013;-76
2022/04/30 02:51:54;;;;;;;39.60;19.52;;;;;;;4.19;58.83;99261.31;5050485;28;20029;-77
2022/04/30 02:54:19;;;;;;;38.50;20.23;;;;;;;4.17;58.88;99254.25;5049898;28;20049;-77
2022/04/30 02:56:45;;;;;;;41.28;20.95;;;;;;;4.17;59.50;99248.81;5049854;28;20025;-77
2022/04/30 03:01:54;;;;;;;40.47;20.27;;;;;;;4.14;59.20;99241.13;5050419;28;20035;-77
2022/04/30 03:04:20;;;;;;;41.47;20.45;;;;;;;4.14;59.09;99248.44;5050105;28;20022;-77
2022/04/30 03:06:46;;;;;;;42.13;21.33;;;;;;;4.14;58.96;99243.00;5049638;28;20079;-77
2022/04/30 03:09:12;;;;;;;46.72;21.23;;;;;;;4.11;59.70;99244.31;5049204;28;20044;-76
2022/04/30 03:11:38;;;;;;;38.88;19.73;;;;;;;4.11;59.13;99241.59;5049776;28;20085;-76
2022/04/30 03:14:04;;;;;;;39.20;20.10;;;;;;;4.10;58.80;99241.81;5049352;28;20107;-76
2022/04/30 03:21:58;;;;;;;39.63;20.30;;;;;;;4.09;59.37;99235.56;5049275;28;20090;-76
2022/04/30 03:24:27;;;;;;;43.47;20.50;;;;;;;4.10;59.72;99237.22;5048882;28;20465;-76
2022/04/30 03:26:52;;;;;;;37.45;20.55;;;;;;;4.14;59.66;99232.16;5049417;28;20485;-76
2022/04/30 03:29:18;;;;;;;43.05;20.63;;;;;;;4.18;59.92;99238.75;5053598;28;20040;-77
2022/04/30 03:31:44;;;;;;;45.83;21.52;;;;;;;4.19;59.99;99226.84;5053271;28;20028;-76
2022/04/30 03:34:12;;;;;;;39.70;21.08;;;;;;;4.30;60.12;99233.31;5053085;28;20405;-76
2022/04/30 03:36:38;;;;;;;45.22;21.77;;;;;;;4.40;59.73;99230.84;5053306;28;20021;-76
2022/04/30 03:39:04;;;;;;;41.67;20.73;;;;;;;4.47;60.15;99233.47;5053583;28;20147;-76
2022/04/30 03:41:31;;;;;;;44.00;21.67;;;;;;;4.51;60.05;99223.75;5053440;28;20112;-76
2022/04/30 03:43:57;;;;;;;38.80;20.20;;;;;;;4.53;60.14;99224.34;5053111;28;20039;-76
2022/04/30 03:46:22;;;;;;;39.47;21.33;;;;;;;4.49;59.73;99225.88;5051793;28;20045;-76
2022/04/30 03:48:53;;;;;;;39.58;22.10;;;;;;;4.44;59.86;99221.19;5053226;28;20381;-76
2022/04/30 03:51:19;;;;;;;41.05;23.05;;;;;;;4.42;59.52;99234.16;5053484;28;20036;-76
2022/04/30 03:53:45;;;;;;;36.40;21.77;;;;;;;4.42;59.32;99228.72;5052723;28;20112;-77
2022/04/30 03:56:10;;;;;;;37.03;22.20;;;;;;;4.43;60.00;99232.28;5052910;28;20025;-76
2022/04/30 03:58:37;;;;;;;44.85;23.67;;;;;;;4.42;60.11;99228.72;5053126;28;20291;-76
2022/04/30 04:01:02;;;;;;;42.38;23.90;;;;;;;4.47;59.70;99228.84;5053152;28;20548;-76
2022/04/30 04:03:28;;;;;;;43.20;23.92;;;;;;;4.50;59.87;99237.59;5052793;28;20029;-76
2022/04/30 04:05:53;;;;;;;44.60;24.42;;;;;;;4.56;59.92;99237.47;5051279;28;20027;-76
2022/04/30 04:08:20;;;;;;;47.03;24.92;;;;;;;4.64;59.83;99232.72;5052696;28;20021;-76
2022/04/30 04:10:46;;;;;;;44.70;25.27;;;;;;;4.70;59.83;99237.22;5052859;28;20036;-76
2022/04/30 04:18:40;;;;;;;55.45;29.75;;;;;;;5.06;60.43;99246.13;5052891;28;20155;-76
2022/04/30 04:21:07;;;;;;;60.55;30.63;;;;;;;5.14;60.42;99240.31;5052536;28;20096;-77
2022/04/30 04:25:58;;;;;;;66.40;32.58;;;;;;;5.21;59.58;99243.72;5052151;28;20389;-76
2022/04/30 04:26:18;;;;;;;59.35;31.33;;;;;;;5.27;59.79;99241.94;5052482;28;20037;-76
2022/04/30 04:28:44;;;;;;;64.97;32.38;;;;;;;5.35;60.29;99240.72;5052353;28;20021;-76
2022/04/30 04:31:09;;;;;;;68.57;33.13;;;;;;;5.45;60.25;99231.94;5052543;28;20092;-76
2022/04/30 04:33:35;;;;;;;68.22;34.15;;;;;;;5.49;60.20;99238.53;5052143;28;20025;-76
2022/04/30 04:36:00;;;;;;;70.28;34.33;;;;;;;5.55;59.71;99242.19;5052274;28;20100;-76
2022/04/30 04:38:25;;;;;;;67.47;34.60;;;;;;;5.62;60.13;99240.94;5052031;28;20044;-77
2022/04/30 04:40:51;;;;;;;70.60;35.47;;;;;;;5.77;60.46;99243.13;5052183;28;20448;-76
2022/04/30 04:43:16;;;;;;;68.82;33.88;;;;;;;5.91;59.99;99242.81;5052595;28;20036;-76
2022/04/30 04:45:43;;;;;;;69.70;35.58;;;;;;;6.02;60.47;99257.44;5051600;28;20049;-76
2022/04/30 04:48:09;;;;;;;64.60;32.72;;;;;;;6.13;59.98;99240.22;5051786;28;20021;-76
2022/04/30 04:50:35;;;;;;;69.45;34.45;;;;;;;6.21;59.69;99242.53;5052544;28;20130;-76
2022/04/30 04:53:00;;;;;;;60.70;31.40;;;;;;;6.32;60.00;99240.78;5051934;28;20029;-76
2022/04/30 04:55:26;;;;;;;65.70;33.03;;;;;;;6.39;59.74;99241.44;5051877;28;20033;-76
2022/04/30 04:57:51;;;;;;;73.25;36.55;;;;;;;6.52;59.98;99245.72;5051556;28;20025;-77
2022/04/30 05:00:17;;;;;;;70.70;35.67;;;;;;;6.69;59.72;99253.03;5051459;28;20033;-74
2022/04/30 05:02:43;;;;;;;65.97;34.08;;;;;;;6.77;59.91;99247.13;5051367;28;20076;-75
2022/04/30 05:05:10;;;;;;;61.97;34.65;;;;;;;6.76;59.39;99247.41;5051884;28;20051;-77
2022/04/30 05:07:35;;;;;;;69.13;34.53;;;;;;;6.77;59.25;99249.88;5051607;28;20417;-77
2022/04/30 05:10:01;;;;;;;62.10;32.42;;;;;;;6.87;59.26;99243.75;5051459;28;20060;-78
2022/04/30 05:12:26;;;;;;;55.78;30.45;;;;;;;6.95;59.33;99248.75;5051683;28;20024;-79
2022/04/30 05:14:53;;;;;;;56.80;28.85;;;;;;;6.97;58.84;99248.50;5051450;28;20028;-78
2022/04/30 05:17:18;;;;;;;53.30;29.02;;;;;;;6.99;58.75;99254.53;5051050;28;20009;-78
2022/04/30 05:19:44;;;;;;;54.22;29.52;;;;;;;7.09;59.26;99249.22;5051257;28;20079;-78
2022/04/30 05:22:09;;;;;;;57.60;29.52;;;;;;;7.30;59.07;99253.00;5051034;28;20083;-78
2022/04/30 05:24:35;;;;;;;50.72;28.30;;;;;;;7.40;58.86;99251.47;5050923;28;20021;-78
2022/04/30 05:27:01;;;;;;;52.55;28.15;;;;;;;7.45;58.71;99259.72;5051257;28;20385;-79
2022/04/30 05:29:27;;;;;;;48.65;27.70;;;;;;;7.48;58.37;99256.47;5052059;28;20103;-78
2022/04/30 05:31:52;;;;;;;49.85;27.70;;;;;;;7.63;58.00;99265.91;5051198;28;20132;-78
2022/04/30 05:34:18;;;;;;;42.47;23.55;;;;;;;7.71;57.89;99252.63;5051497;28;20533;-78
2022/04/30 05:36:44;;;;;;;40.67;23.23;;;;;;;7.79;58.14;99251.31;5051375;28;20025;-78
2022/04/30 05:39:10;;;;;;;47.13;24.80;;;;;;;7.85;57.74;99260.41;5049936;28;20021;-79
2022/04/30 05:41:35;;;;;;;52.60;27.48;;;;;;;7.88;57.47;99257.97;5051241;28;20031;-78
2022/04/30 05:44:00;;;;;;;55.15;28.63;;;;;;;7.93;57.84;99259.09;5051400;28;20104;-79
2022/04/30 05:46:26;;;;;;;45.50;24.73;;;;;;;8.05;58.15;99255.13;5051043;28;20542;-79
2022/04/30 05:48:52;;;;;;;46.05;23.45;;;;;;;8.19;57.51;99257.41;5050891;28;20465;-78
2022/04/30 05:51:17;;;;;;;42.05;24.23;;;;;;;8.34;57.13;99253.97;5050161;28;20056;-79
2022/04/30 05:53:42;;;;;;;48.08;26.42;;;;;;;8.55;57.20;99254.16;5050814;28;20370;-78
2022/04/30 05:56:08;;;;;;;48.50;25.77;;;;;;;8.72;57.36;99259.47;5050943;28;20473;-79
2022/04/30 05:58:34;;;;;;;49.17;26.80;;;;;;;8.83;57.08;99252.16;5051214;28;20381;-79
2022/04/30 06:01:00;;;;;;;49.70;27.42;;;;;;;8.94;56.81;99248.38;5050685;28;20033;-78
2022/04/30 06:03:25;;;;;;;61.75;30.42;;;;;;;9.04;57.07;99245.66;5050467;28;20036;-78
2022/04/30 06:05:51;;;;;;;72.57;34.08;;;;;;;9.17;56.93;99251.75;5050792;28;20020;-79
2022/04/30 06:08:16;;;;;;;64.78;32.78;;;;;;;9.37;56.79;99254.56;5050557;28;20025;-78
2022/04/30 06:10:41;;;;;;;60.20;31.30;;;;;;;9.53;57.37;99254.59;5050980;28;20100;-79
2022/04/30 06:13:07;;;;;;;50.03;27.05;;;;;;;9.66;56.97;99253.25;5050845;28;20051;-79
2022/04/30 06:15:32;;;;;;;47.15;25.80;;;;;;;9.79;56.30;99252.75;5050412;28;20037;-79
2022/04/30 06:17:58;;;;;;;52.28;27.95;;;;;;;9.92;56.05;99248.66;5050473;28;20017;-79
2022/04/30 06:20:23;;;;;;;53.33;27.65;;;;;;;10.09;56.06;99245.66;5050751;28;20492;-79
2022/04/30 06:22:49;;;;;;;49.00;26.45;;;;;;;10.22;56.16;99247.00;5050398;28;20033;-79
2022/04/30 06:25:15;;;;;;;49.03;26.42;;;;;;;10.25;55.21;99251.94;5050752;28;20393;-79
2022/04/30 06:27:41;;;;;;;46.63;25.42;;;;;;;10.35;55.63;99253.88;5050066;28;20432;-79
2022/04/30 06:30:08;;;;;;;51.35;25.25;;;;;;;10.41;55.35;99250.06;5050080;28;20044;-79
2022/04/30 06:32:34;;;;;;;39.83;22.42;;;;;;;10.47;54.97;99250.03;5050099;28;20090;-79
2022/04/30 06:35:02;;;;;;;47.10;24.77;;;;;;;10.55;54.49;99255.81;5050252;28;20025;-79
2022/04/30 06:37:27;;;;;;;44.95;24.98;;;;;;;10.60;54.88;99248.69;5050295;28;20033;-79
2022/04/30 06:39:53;;;;;;;48.47;26.60;;;;;;;10.72;54.55;99243.69;5050238;28;20033;-78
2022/04/30 06:42:18;;;;;;;48.67;25.73;;;;;;;10.80;54.45;99247.81;5050488;28;20029;-79
2022/04/30 06:44:44;;;;;;;55.83;29.60;;;;;;;10.80;54.76;99250.56;5049603;28;20116;-78
2022/04/30 06:47:09;;;;;;;54.92;28.77;;;;;;;10.91;54.74;99251.34;5050595;28;20024;-78
2022/04/30 06:49:35;;;;;;;54.83;29.08;;;;;;;10.96;54.53;99246.66;5050229;28;20078;-79
2022/04/30 06:52:01;;;;;;;43.95;24.10;;;;;;;11.09;54.12;99250.72;5049720;28;20055;-78
2022/04/30 06:57:11;;;;;;;38.22;20.02;;;;;;;11.21;54.10;99250.41;5050530;28;20512;-79
2022/04/30 06:59:41;;;;;;;33.33;18.13;;;;;;;11.38;53.80;99252.81;5049970;28;20025;-79
2022/04/30 07:02:13;;;;;;;33.10;17.13;;;;;;;11.52;52.95;99243.94;5052162;28;20047;-78
2022/04/30 07:04:41;;;;;;;34.38;18.67;;;;;;;11.59;52.61;99245.28;5053295;28;20469;-79
2022/04/30 07:07:07;;;;;;;35.33;18.08;;;;;;;11.72;52.88;99240.25;5054105;28;20083;-79
2022/04/30 07:09:32;;;;;;;29.77;17.67;;;;;;;11.83;52.85;99239.09;5054221;28;20029;-79
2022/04/30 07:12:09;;;;;;;30.45;18.40;;;;;;;11.93;52.14;99240.13;5053968;28;20013;-78
2022/04/30 07:14:36;;;;;;;30.20;17.60;;;;;;;12.02;51.90;99244.75;5053812;28;20033;-79
2022/04/30 07:17:06;;;;;;;29.85;18.15;;;;;;;12.11;51.39;99239.44;5053680;28;20029;-79
2022/04/30 07:19:33;;;;;;;30.65;18.55;;;;;;;12.20;51.86;99243.22;5053794;28;20025;-79
2022/04/30 07:21:58;;;;;;;31.00;17.38;;;;;;;12.34;51.25;99242.59;5053752;28;20078;-78
2022/04/30 07:24:24;;;;;;;31.95;18.50;;;;;;;12.42;51.45;99238.38;5053692;28;20458;-79
2022/04/30 07:26:51;;;;;;;27.30;17.10;;;;;;;12.57;51.95;99238.25;5053508;28;20029;-79
2022/04/30 07:29:17;;;;;;;26.92;16.95;;;;;;;12.68;51.69;99238.13;5053618;28;20083;-79
2022/04/30 07:31:42;;;;;;;28.42;16.02;;;;;;;12.79;51.19;99232.22;5053250;28;20021;-78
2022/04/30 07:34:10;;;;;;;24.02;14.80;;;;;;;12.87;51.46;99232.69;5051863;28;20025;-79
2022/04/30 07:36:36;;;;;;;29.17;15.25;;;;;;;12.98;51.27;99228.69;5053539;28;20036;-78
2022/04/30 07:39:02;;;;;;;27.33;16.40;;;;;;;13.06;50.58;99222.56;5053656;28;20028;-79
2022/04/30 07:41:28;;;;;;;25.73;14.05;;;;;;;13.12;49.84;99226.06;5053012;28;20033;-78
2022/04/30 07:43:53;;;;;;;26.05;14.88;;;;;;;13.17;50.20;99225.19;5052792;28;20580;-79
2022/04/30 07:46:19;;;;;;;25.10;14.93;;;;;;;13.31;50.36;99220.59;5052653;28;20590;-79
2022/04/30 07:48:44;;;;;;;24.52;14.23;;;;;;;13.41;50.30;99214.16;5051961;28;20393;-79
2022/04/30 07:51:14;;;;;;;19.15;10.32;;;;;;;13.56;49.79;99218.63;5052938;28;20074;-79
2022/04/30 07:53:41;;;;;;;13.60;7.70;;;;;;;13.62;46.95;99213.88;5051519;28;20401;-79
2022/04/30 07:56:09;;;;;;;11.80;7.03;;;;;;;13.62;46.02;99217.44;5053137;28;20123;-79
2022/04/30 07:58:34;;;;;;;14.10;7.03;;;;;;;13.70;46.64;99215.94;5052967;28;20032;-79
2022/04/30 08:00:59;;;;;;;12.73;7.35;;;;;;;13.77;46.05;99212.81;5051342;28;20033;-79
2022/04/30 08:03:25;;;;;;;13.13;6.63;;;;;;;13.87;45.93;99214.59;5051321;28;20036;-80
2022/04/30 08:05:51;;;;;;;11.98;6.68;;;;;;;13.99;45.91;99214.94;5052878;28;20024;-79
2022/04/30 08:08:16;;;;;;;14.40;9.00;;;;;;;14.09;46.08;99214.78;5052784;28;20772;-79
2022/04/30 08:10:42;;;;;;;15.93;9.00;;;;;;;14.22;45.92;99215.94;5052971;28;20025;-80
2022/04/30 08:13:07;;;;;;;23.80;14.02;;;;;;;14.33;46.15;99219.34;5051077;28;20037;-80
2022/04/30 08:15:34;;;;;;;19.23;11.13;;;;;;;14.39;45.72;99220.09;5052504;28;20033;-79
2022/04/30 08:17:59;;;;;;;15.90;9.82;;;;;;;14.47;44.86;99215.81;5052252;28;20469;-79
2022/04/30 08:20:24;;;;;;;12.07;7.90;;;;;;;14.48;43.74;99229.28;5053029;28;20025;-79
2022/04/30 08:22:50;;;;;;;8.90;6.18;;;;;;;14.44;43.05;99215.28;5052427;28;20021;-79
2022/04/30 08:25:16;;;;;;;12.43;6.60;;;;;;;14.44;43.06;99218.06;5052907;28;20041;-79
2022/04/30 08:27:42;;;;;;;10.43;6.95;;;;;;;14.49;43.63;99222.66;5052291;28;20080;-79
2022/04/30 08:30:09;;;;;;;9.80;5.65;;;;;;;14.54;42.70;99217.03;5052448;28;20048;-79
2022/04/30 08:32:35;;;;;;;11.07;5.43;;;;;;;14.61;42.72;99216.66;5052040;28;20031;-79
2022/04/30 08:35:01;;;;;;;9.95;6.32;;;;;;;14.73;42.24;99213.44;5052422;28;20112;-79
2022/04/30 08:37:28;;;;;;;10.55;6.38;;;;;;;14.84;42.38;99212.13;5051915;28;20485;-79
2022/04/30 08:39:53;;;;;;;10.68;6.00;;;;;;;14.99;41.67;99212.91;5051852;28;20686;-78
2022/04/30 08:42:22;;;;;;;13.27;7.13;;;;;;;15.14;41.94;99207.09;5051752;28;20035;-75
2022/04/30 08:44:47;;;;;;;12.00;6.25;;;;;;;15.17;40.81;99211.16;5051835;28;20140;-76
2022/04/30 08:47:13;;;;;;;11.07;5.53;;;;;;;15.18;41.00;99208.09;5052157;28;20119;-76
2022/04/30 08:49:41;;;;;;;11.20;5.63;;;;;;;15.29;40.89;99207.88;5052346;28;20025;-76
2022/04/30 08:52:07;;;;;;;7.95;4.78;;;;;;;15.42;40.51;99215.31;5052171;28;20032;-78
2022/04/30 08:54:33;;;;;;;11.02;5.55;;;;;;;15.52;40.12;99199.66;5051614;28;20029;-81
2022/04/30 08:56:59;;;;;;;8.07;5.05;;;;;;;15.57;39.97;99194.81;5052233;28;20033;-71
2022/04/30 08:59:24;;;;;;;9.65;5.50;;;;;;;15.60;39.98;99201.69;5052708;28;20032;-72
2022/04/30 09:01:55;;;;;;;8.75;5.40;;;;;;;15.70;39.40;99189.56;5052338;28;20029;-72
2022/04/30 09:04:21;;;;;;;10.55;5.78;;;;;;;15.84;39.19;99186.75;5050756;28;20033;-72
2022/04/30 09:06:49;;;;;;;11.70;5.53;;;;;;;16.00;40.14;99184.44;5051792;28;20021;-72
2022/04/30 09:09:26;;;;;;;9.57;5.15;;;;;;;16.17;39.89;99186.50;5051444;28;20029;-72
2022/04/30 09:11:57;;;;;;;9.20;5.30;;;;;;;16.31;39.45;99178.94;5051553;28;20055;-72
2022/04/30 09:14:29;;;;;;;10.70;6.10;;;;;;;16.41;38.61;99174.28;5050519;28;20029;-73
2022/04/30 09:17:14;;;;;;;9.13;5.13;;;;;;;16.47;38.43;99173.81;5052071;28;20381;-72
2022/04/30 09:19:59;;;;;;;10.82;5.60;;;;;;;16.56;38.01;99168.31;5052018;28;20098;-73
2022/04/30 09:22:36;;;;;;;10.00;6.03;;;;;;;16.62;37.74;99169.00;5052100;28;20473;-72
2022/04/30 09:25:09;;;;;;;9.88;5.63;;;;;;;16.63;38.43;99163.13;5050984;28;20017;-75
2022/04/30 09:27:45;;;;;;;9.95;5.90;;;;;;;16.66;37.89;99173.59;5052054;28;20025;-74
2022/04/30 09:30:18;;;;;;;8.82;5.53;;;;;;;16.84;37.62;99172.81;5051917;28;20025;-73
2022/04/30 09:32:44;;;;;;;9.40;5.90;;;;;;;17.01;37.42;99169.31;5051328;28;20028;-73
2022/04/30 09:38:09;;;;;;;8.43;5.63;;;;;;;17.13;36.02;99166.75;5050517;28;20036;-73
2022/04/30 09:40:35;;;;;;;9.50;5.60;;;;;;;17.21;36.63;99163.19;5048638;28;20502;-70
2022/04/30 09:43:05;;;;;;;10.75;5.65;;;;;;;17.31;36.09;99162.06;5050258;28;20090;-70
2022/04/30 09:45:35;;;;;;;8.23;5.07;;;;;;;17.47;35.48;99165.16;5050879;28;20136;-70
2022/04/30 09:48:01;;;;;;;;;;;;;;;17.56;36.56;99156.84;5050663;28;20095;-70
2022/04/30 09:56:14;;;;;;;10.80;5.80;;;;;;;17.64;34.98;99146.91;5050164;28;20044;-75
2022/04/30 09:58:41;;;;;;;16.48;8.35;;;;;;;17.62;35.34;99141.66;5050838;28;20029;-79
2022/04/30 10:01:11;;;;;;;11.30;5.88;;;;;;;17.71;35.29;99136.13;5051113;28;20033;-78
2022/04/30 10:03:39;;;;;;;10.73;6.22;;;;;;;17.79;35.77;99142.81;5050097;28;20024;-80
2022/04/30 10:06:06;;;;;;;35.80;13.27;;;;;;;17.77;36.26;99150.66;5050130;28;20240;-79
2022/04/30 10:08:35;;;;;;;12.15;6.38;;;;;;;17.80;35.95;99138.91;5050206;28;20021;-79
2022/04/30 10:11:17;;;;;;;10.27;5.80;;;;;;;17.90;36.12;99140.50;5049980;28;20024;-82
2022/04/30 10:14:13;;;;;;;13.48;6.43;;;;;;;17.86;34.73;99127.28;5049237;28;20059;-81
2022/04/30 10:16:42;;;;;;;10.65;5.07;;;;;;;17.94;35.25;99131.19;5050830;28;20033;-82
2022/04/30 10:19:15;;;;;;;10.80;6.18;;;;;;;17.95;34.86;99132.03;5050690;28;20037;-82
2022/04/30 10:21:41;;;;;;;9.50;5.13;;;;;;;17.95;34.57;99126.47;5050457;28;20025;-83
2022/04/30 10:24:09;;;;;;;14.57;5.93;;;;;;;17.96;35.05;99128.09;5050126;28;20051;-82
2022/04/30 10:26:35;;;;;;;9.55;5.75;;;;;;;18.01;35.16;99122.41;5050663;28;20078;-72
2022/04/30 10:29:10;;;;;;;10.13;6.10;;;;;;;18.03;34.80;99122.91;5046130;28;20025;-71
2022/04/30 10:31:53;;;;;;;10.88;5.72;;;;;;;17.98;34.64;99121.06;5049419;28;20507;-73
2022/04/30 10:34:29;;;;;;;14.02;5.97;;;;;;;17.91;35.20;99112.44;5048490;28;20108;-70
2022/04/30 10:36:55;;;;;;;9.63;5.63;;;;;;;17.99;35.00;99117.16;5048206;28;20370;-70
2022/04/30 10:39:21;;;;;;;12.02;6.13;;;;;;;18.13;35.50;99110.63;5043875;28;20035;-70
2022/04/30 10:41:49;;;;;;;11.40;5.80;;;;;;;18.29;34.83;99108.94;5047385;28;20120;-71
2022/04/30 10:44:15;;;;;;;10.88;6.13;;;;;;;18.39;34.98;99110.53;5047106;28;20048;-70
2022/04/30 10:46:45;;;;;;;9.10;5.80;;;;;;;18.50;34.68;99112.94;5048715;28;20056;-73
2022/04/30 10:49:11;;;;;;;7.20;5.10;;;;;;;18.55;34.80;99102.47;5047791;28;20423;-73
2022/04/30 10:51:42;;;;;;;11.25;6.07;;;;;;;18.58;34.86;99104.56;5048889;28;20021;-72
2022/04/30 10:54:18;;;;;;;11.85;6.22;;;;;;;18.67;34.50;99106.50;5048974;28;20037;-73
2022/04/30 10:56:45;;;;;;;8.20;5.65;;;;;;;18.77;34.50;99092.19;5048807;28;20025;-73
2022/04/30 10:59:21;;;;;;;11.95;6.60;;;;;;;18.71;34.20;99099.13;5049057;28;20029;-73
2022/04/30 11:01:49;;;;;;;12.57;6.55;;;;;;;18.67;34.49;99092.59;5048745;28;20029;-72
2022/04/30 11:04:22;;;;;;;9.30;6.22;;;;;;;18.73;34.08;99097.63;5048841;28;20175;-73
2022/04/30 11:06:53;;;;;;;13.45;11.10;;;;;;;18.88;34.06;99098.22;5048713;28;20035;-73
2022/04/30 11:09:20;;;;;;;28.80;19.23;;;;;;;19.08;34.25;99093.84;5047541;28;20025;-73
2022/04/30 11:11:48;;;;;;;19.05;14.98;;;;;;;19.08;33.74;99096.63;5047763;28;20055;-73
2022/04/30 11:14:16;;;;;;;23.02;18.80;;;;;;;18.96;32.97;99094.56;5048237;28;20501;-72
2022/04/30 11:16:47;;;;;;;100.97;45.72;;;;;;;18.96;32.99;99094.56;5049082;28;20029;-74
2022/04/30 11:19:23;;;;;;;14.52;7.32;;;;;;;18.98;33.02;99097.81;5049067;28;20091;-75
2022/04/30 11:21:53;;;;;;;11.25;6.50;;;;;;;18.97;33.09;99084.28;5048666;28;20036;-73
2022/04/30 11:24:26;;;;;;;10.90;6.30;;;;;;;19.13;33.59;99090.03;5048262;28;20021;-73
2022/04/30 11:27:03;;;;;;;50.67;22.95;;;;;;;19.28;32.89;99088.63;5048425;28;20094;-73
2022/04/30 11:29:29;;;;;;;117.88;47.47;;;;;;;19.32;33.38;99075.66;5048615;28;20031;-72
2022/04/30 11:31:55;;;;;;;60.63;25.60;;;;;;;19.32;32.39;99082.06;5048700;28;20388;-72
2022/04/30 11:34:21;;;;;;;208.45;89.28;;;;;;;19.33;32.90;99078.13;5048414;28;20035;-73
2022/04/30 11:36:49;;;;;;;13.27;7.60;;;;;;;19.39;32.89;99073.16;5048523;28;20033;-72
2022/04/30 11:39:15;;;;;;;16.75;10.27;;;;;;;19.60;32.83;99070.34;5048456;28;20104;-72
2022/04/30 11:41:43;;;;;;;11.55;7.43;;;;;;;19.79;32.96;99071.78;5048511;28;20031;-73
2022/04/30 11:44:10;;;;;;;9.90;6.40;;;;;;;19.73;32.03;99062.06;5048497;28;20029;-72
2022/04/30 11:46:37;;;;;;;8.25;5.28;;;;;;;19.82;31.84;99067.53;5048495;28;20128;-68
2022/04/30 11:49:24;;;;;;;13.90;8.38;;;;;;;19.92;32.00;99062.34;5050420;28;20657;-69
2022/04/30 11:51:51;;;;;;;13.45;6.95;;;;;;;20.14;31.76;99065.91;5043647;28;20028;-72
2022/04/30 11:54:19;;;;;;;11.25;7.57;;;;;;;20.25;31.07;99062.63;5050325;28;20043;-73
2022/04/30 11:56:45;;;;;;;10.45;6.88;;;;;;;20.23;31.59;99055.44;5051882;28;20612;-73
2022/04/30 11:59:11;;;;;;;10.45;6.47;;;;;;;20.24;31.48;99056.28;5052067;28;20017;-73